sensor_id;sensor_type;location;lat;lon;timestamp;temperature;humidity
72772;SHT30;60894;42.544;1.516;2023-07-13T00:01:29;20.65;53.72
72772;SHT30;60894;42.544;1.516;2023-07-13T00:03:56;20.56;53.82
72772;SHT30;60894;42.544;1.516;2023-07-13T00:06:24;20.48;53.76
72772;SHT30;60894;42.544;1.516;2023-07-13T00:08:51;20.69;53.41
72772;SHT30;60894;42.544;1.516;2023-07-13T00:11:18;20.65;53.57
72772;SHT30;60894;42.544;1.516;2023-07-13T00:13:45;20.81;53.14
72772;SHT30;60894;42.544;1.516;2023-07-13T00:16:12;20.73;53.21
72772;SHT30;60894;42.544;1.516;2023-07-13T00:18:41;20.44;54.20
72772;SHT30;60894;42.544;1.516;2023-07-13T00:21:08;20.42;54.24
72772;SHT30;60894;42.544;1.516;2023-07-13T00:23:37;20.65;53.93
72772;SHT30;60894;42.544;1.516;2023-07-13T00:26:07;20.82;53.53
72772;SHT30;60894;42.544;1.516;2023-07-13T00:28:34;20.98;52.63
72772;SHT30;60894;42.544;1.516;2023-07-13T00:31:02;20.86;52.96
72772;SHT30;60894;42.544;1.516;2023-07-13T00:33:29;20.73;53.74
72772;SHT30;60894;42.544;1.516;2023-07-13T00:35:57;20.86;53.35
72772;SHT30;60894;42.544;1.516;2023-07-13T00:38:24;20.62;53.99
72772;SHT30;60894;42.544;1.516;2023-07-13T00:40:51;20.68;53.64
72772;SHT30;60894;42.544;1.516;2023-07-13T00:43:21;20.64;54.07
72772;SHT30;60894;42.544;1.516;2023-07-13T00:46:15;20.64;53.80
72772;SHT30;60894;42.544;1.516;2023-07-13T00:48:43;20.76;53.63
72772;SHT30;60894;42.544;1.516;2023-07-13T00:51:13;20.75;53.74
72772;SHT30;60894;42.544;1.516;2023-07-13T00:53:42;20.71;54.30
72772;SHT30;60894;42.544;1.516;2023-07-13T00:56:09;20.55;54.66
72772;SHT30;60894;42.544;1.516;2023-07-13T00:58:36;20.41;54.22
72772;SHT30;60894;42.544;1.516;2023-07-13T01:01:03;20.24;55.34
72772;SHT30;60894;42.544;1.516;2023-07-13T01:03:30;20.41;54.47
72772;SHT30;60894;42.544;1.516;2023-07-13T01:05:58;20.44;54.40
72772;SHT30;60894;42.544;1.516;2023-07-13T01:08:26;20.68;53.69
72772;SHT30;60894;42.544;1.516;2023-07-13T01:10:54;20.30;55.23
72772;SHT30;60894;42.544;1.516;2023-07-13T01:13:21;20.20;55.43
72772;SHT30;60894;42.544;1.516;2023-07-13T01:15:50;20.13;55.56
72772;SHT30;60894;42.544;1.516;2023-07-13T01:18:19;20.21;55.50
72772;SHT30;60894;42.544;1.516;2023-07-13T01:20:50;20.16;55.69
72772;SHT30;60894;42.544;1.516;2023-07-13T01:23:18;20.10;55.87
72772;SHT30;60894;42.544;1.516;2023-07-13T01:25:45;20.47;55.31
72772;SHT30;60894;42.544;1.516;2023-07-13T01:28:12;20.64;54.33
72772;SHT30;60894;42.544;1.516;2023-07-13T01:30:40;20.35;55.28
72772;SHT30;60894;42.544;1.516;2023-07-13T01:33:08;20.21;55.56
72772;SHT30;60894;42.544;1.516;2023-07-13T01:35:36;20.62;54.18
72772;SHT30;60894;42.544;1.516;2023-07-13T01:38:04;20.32;55.04
72772;SHT30;60894;42.544;1.516;2023-07-13T01:40:34;20.30;55.14
72772;SHT30;60894;42.544;1.516;2023-07-13T01:43:01;20.48;54.69
72772;SHT30;60894;42.544;1.516;2023-07-13T01:45:28;20.45;54.75
72772;SHT30;60894;42.544;1.516;2023-07-13T01:47:55;20.71;53.73
72772;SHT30;60894;42.544;1.516;2023-07-13T01:50:23;20.51;54.77
72772;SHT30;60894;42.544;1.516;2023-07-13T01:52:50;20.73;53.89
72772;SHT30;60894;42.544;1.516;2023-07-13T01:55:18;20.76;53.48
72772;SHT30;60894;42.544;1.516;2023-07-13T01:57:45;20.42;54.65
72772;SHT30;60894;42.544;1.516;2023-07-13T02:00:14;20.38;54.98
72772;SHT30;60894;42.544;1.516;2023-07-13T02:02:41;20.27;55.59
72772;SHT30;60894;42.544;1.516;2023-07-13T02:05:08;20.10;55.74
72772;SHT30;60894;42.544;1.516;2023-07-13T02:07:35;19.98;56.51
72772;SHT30;60894;42.544;1.516;2023-07-13T02:10:02;20.27;55.77
72772;SHT30;60894;42.544;1.516;2023-07-13T02:12:31;20.21;55.47
72772;SHT30;60894;42.544;1.516;2023-07-13T02:14:58;19.90;56.37
72772;SHT30;60894;42.544;1.516;2023-07-13T02:17:26;20.03;56.05
72772;SHT30;60894;42.544;1.516;2023-07-13T02:19:53;20.28;55.64
72772;SHT30;60894;42.544;1.516;2023-07-13T02:22:21;20.25;55.94
72772;SHT30;60894;42.544;1.516;2023-07-13T02:24:48;20.09;56.01
72772;SHT30;60894;42.544;1.516;2023-07-13T02:27:15;20.10;56.10
72772;SHT30;60894;42.544;1.516;2023-07-13T02:29:44;19.65;57.51
72772;SHT30;60894;42.544;1.516;2023-07-13T02:32:11;19.79;56.96
72772;SHT30;60894;42.544;1.516;2023-07-13T02:34:38;19.82;57.20
72772;SHT30;60894;42.544;1.516;2023-07-13T02:37:05;19.55;57.71
72772;SHT30;60894;42.544;1.516;2023-07-13T02:39:32;19.50;57.74
72772;SHT30;60894;42.544;1.516;2023-07-13T02:41:59;19.66;57.57
72772;SHT30;60894;42.544;1.516;2023-07-13T02:44:26;19.55;58.29
72772;SHT30;60894;42.544;1.516;2023-07-13T02:46:54;19.32;58.50
72772;SHT30;60894;42.544;1.516;2023-07-13T02:49:21;19.72;57.09
72772;SHT30;60894;42.544;1.516;2023-07-13T02:51:48;19.72;57.59
72772;SHT30;60894;42.544;1.516;2023-07-13T02:54:15;19.86;57.17
72772;SHT30;60894;42.544;1.516;2023-07-13T02:56:42;20.00;56.56
72772;SHT30;60894;42.544;1.516;2023-07-13T02:59:10;20.03;56.08
72772;SHT30;60894;42.544;1.516;2023-07-13T03:01:37;19.72;57.33
72772;SHT30;60894;42.544;1.516;2023-07-13T03:04:06;19.28;59.08
72772;SHT30;60894;42.544;1.516;2023-07-13T03:06:33;19.25;58.63
72772;SHT30;60894;42.544;1.516;2023-07-13T03:09:00;19.42;58.57
72772;SHT30;60894;42.544;1.516;2023-07-13T03:11:27;19.35;59.13
72772;SHT30;60894;42.544;1.516;2023-07-13T03:13:55;19.53;58.27
72772;SHT30;60894;42.544;1.516;2023-07-13T03:16:22;19.96;56.60
72772;SHT30;60894;42.544;1.516;2023-07-13T03:18:49;19.93;56.80
72772;SHT30;60894;42.544;1.516;2023-07-13T03:21:17;19.80;57.34
72772;SHT30;60894;42.544;1.516;2023-07-13T03:23:44;19.83;57.14
72772;SHT30;60894;42.544;1.516;2023-07-13T03:26:12;19.65;57.99
72772;SHT30;60894;42.544;1.516;2023-07-13T03:28:40;19.87;56.57
72772;SHT30;60894;42.544;1.516;2023-07-13T03:31:09;19.69;57.67
72772;SHT30;60894;42.544;1.516;2023-07-13T03:33:36;19.70;57.53
72772;SHT30;60894;42.544;1.516;2023-07-13T03:36:04;19.76;57.56
72772;SHT30;60894;42.544;1.516;2023-07-13T03:38:34;20.16;55.98
72772;SHT30;60894;42.544;1.516;2023-07-13T03:41:01;20.13;56.28
72772;SHT30;60894;42.544;1.516;2023-07-13T03:43:28;20.17;56.32
72772;SHT30;60894;42.544;1.516;2023-07-13T03:45:55;20.18;56.39
72772;SHT30;60894;42.544;1.516;2023-07-13T03:48:22;20.20;56.39
72772;SHT30;60894;42.544;1.516;2023-07-13T03:50:49;20.25;55.89
72772;SHT30;60894;42.544;1.516;2023-07-13T03:53:16;20.11;56.36
72772;SHT30;60894;42.544;1.516;2023-07-13T03:55:45;19.66;57.83
72772;SHT30;60894;42.544;1.516;2023-07-13T03:58:27;19.66;57.73
72772;SHT30;60894;42.544;1.516;2023-07-13T04:00:55;19.83;57.22
72772;SHT30;60894;42.544;1.516;2023-07-13T04:03:22;19.91;57.20
72772;SHT30;60894;42.544;1.516;2023-07-13T04:05:50;20.03;56.10
72772;SHT30;60894;42.544;1.516;2023-07-13T04:08:17;19.94;56.42
72772;SHT30;60894;42.544;1.516;2023-07-13T04:10:45;19.76;57.29
72772;SHT30;60894;42.544;1.516;2023-07-13T04:13:12;20.01;56.68
72772;SHT30;60894;42.544;1.516;2023-07-13T04:15:40;20.18;55.56
72772;SHT30;60894;42.544;1.516;2023-07-13T04:18:07;19.93;56.92
72772;SHT30;60894;42.544;1.516;2023-07-13T04:20:34;19.84;57.01
72772;SHT30;60894;42.544;1.516;2023-07-13T04:23:01;19.89;56.41
72772;SHT30;60894;42.544;1.516;2023-07-13T04:25:28;19.76;57.24
72772;SHT30;60894;42.544;1.516;2023-07-13T04:27:57;19.46;58.21
72772;SHT30;60894;42.544;1.516;2023-07-13T04:30:24;19.29;58.59
72772;SHT30;60894;42.544;1.516;2023-07-13T04:32:52;19.28;58.59
72772;SHT30;60894;42.544;1.516;2023-07-13T04:35:19;19.22;58.98
72772;SHT30;60894;42.544;1.516;2023-07-13T04:37:48;19.26;58.96
72772;SHT30;60894;42.544;1.516;2023-07-13T04:40:16;19.39;58.40
72772;SHT30;60894;42.544;1.516;2023-07-13T04:42:43;19.42;58.38
72772;SHT30;60894;42.544;1.516;2023-07-13T04:45:12;19.07;59.37
72772;SHT30;60894;42.544;1.516;2023-07-13T04:47:40;19.29;58.38
72772;SHT30;60894;42.544;1.516;2023-07-13T04:50:08;19.45;57.99
72772;SHT30;60894;42.544;1.516;2023-07-13T04:52:36;19.42;57.65
72772;SHT30;60894;42.544;1.516;2023-07-13T04:55:04;19.48;57.80
72772;SHT30;60894;42.544;1.516;2023-07-13T04:57:31;19.56;57.71
72772;SHT30;60894;42.544;1.516;2023-07-13T04:59:59;19.55;57.69
72772;SHT30;60894;42.544;1.516;2023-07-13T05:02:28;19.65;57.42
72772;SHT30;60894;42.544;1.516;2023-07-13T05:04:56;19.45;57.90
72772;SHT30;60894;42.544;1.516;2023-07-13T05:07:24;19.96;55.72
72772;SHT30;60894;42.544;1.516;2023-07-13T05:09:52;19.76;56.54
72772;SHT30;60894;42.544;1.516;2023-07-13T05:12:19;19.38;57.47
72772;SHT30;60894;42.544;1.516;2023-07-13T05:14:46;19.43;57.44
72772;SHT30;60894;42.544;1.516;2023-07-13T05:17:14;19.21;58.30
72772;SHT30;60894;42.544;1.516;2023-07-13T05:19:43;18.85;59.68
72772;SHT30;60894;42.544;1.516;2023-07-13T05:22:10;18.26;61.80
72772;SHT30;60894;42.544;1.516;2023-07-13T05:24:37;18.78;59.91
72772;SHT30;60894;42.544;1.516;2023-07-13T05:27:05;19.04;59.01
72772;SHT30;60894;42.544;1.516;2023-07-13T05:29:32;19.05;58.92
72772;SHT30;60894;42.544;1.516;2023-07-13T05:31:59;19.22;58.97
72772;SHT30;60894;42.544;1.516;2023-07-13T05:34:26;19.62;57.24
72772;SHT30;60894;42.544;1.516;2023-07-13T05:36:54;19.46;57.99
72772;SHT30;60894;42.544;1.516;2023-07-13T05:39:21;19.74;57.28
72772;SHT30;60894;42.544;1.516;2023-07-13T05:41:48;19.35;57.52
72772;SHT30;60894;42.544;1.516;2023-07-13T05:44:15;19.14;59.14
72772;SHT30;60894;42.544;1.516;2023-07-13T05:46:42;18.94;59.39
72772;SHT30;60894;42.544;1.516;2023-07-13T05:49:09;19.08;59.04
72772;SHT30;60894;42.544;1.516;2023-07-13T05:51:36;19.14;59.43
72772;SHT30;60894;42.544;1.516;2023-07-13T05:54:05;18.80;59.89
72772;SHT30;60894;42.544;1.516;2023-07-13T05:56:31;18.46;60.86
72772;SHT30;60894;42.544;1.516;2023-07-13T05:58:58;18.68;59.98
72772;SHT30;60894;42.544;1.516;2023-07-13T06:01:26;18.70;60.26
72772;SHT30;60894;42.544;1.516;2023-07-13T06:03:53;18.74;60.35
72772;SHT30;60894;42.544;1.516;2023-07-13T06:06:20;18.98;59.89
72772;SHT30;60894;42.544;1.516;2023-07-13T06:08:47;18.77;60.08
72772;SHT30;60894;42.544;1.516;2023-07-13T06:11:18;18.85;59.48
72772;SHT30;60894;42.544;1.516;2023-07-13T06:13:45;19.01;59.32
72772;SHT30;60894;42.544;1.516;2023-07-13T06:16:12;19.32;58.71
72772;SHT30;60894;42.544;1.516;2023-07-13T06:18:40;19.10;59.59
72772;SHT30;60894;42.544;1.516;2023-07-13T06:21:09;19.21;59.49
72772;SHT30;60894;42.544;1.516;2023-07-13T06:23:36;19.22;59.62
72772;SHT30;60894;42.544;1.516;2023-07-13T06:26:03;18.97;60.08
72772;SHT30;60894;42.544;1.516;2023-07-13T06:28:32;19.23;59.83
72772;SHT30;60894;42.544;1.516;2023-07-13T06:30:59;19.22;59.48
72772;SHT30;60894;42.544;1.516;2023-07-13T06:33:27;19.29;59.29
72772;SHT30;60894;42.544;1.516;2023-07-13T06:35:54;19.28;58.76
72772;SHT30;60894;42.544;1.516;2023-07-13T06:38:21;19.31;58.59
72772;SHT30;60894;42.544;1.516;2023-07-13T06:40:48;19.26;59.27
72772;SHT30;60894;42.544;1.516;2023-07-13T06:43:15;19.52;58.34
72772;SHT30;60894;42.544;1.516;2023-07-13T06:45:45;19.66;58.27
72772;SHT30;60894;42.544;1.516;2023-07-13T06:48:13;19.53;58.57
72772;SHT30;60894;42.544;1.516;2023-07-13T06:50:41;19.66;58.55
72772;SHT30;60894;42.544;1.516;2023-07-13T06:53:08;19.77;58.07
72772;SHT30;60894;42.544;1.516;2023-07-13T06:55:35;19.69;58.21
72772;SHT30;60894;42.544;1.516;2023-07-13T06:58:02;19.65;58.43
72772;SHT30;60894;42.544;1.516;2023-07-13T07:00:30;19.70;58.48
72772;SHT30;60894;42.544;1.516;2023-07-13T07:02:58;19.74;58.60
72772;SHT30;60894;42.544;1.516;2023-07-13T07:05:25;19.86;57.30
72772;SHT30;60894;42.544;1.516;2023-07-13T07:07:54;19.79;56.88
72772;SHT30;60894;42.544;1.516;2023-07-13T07:10:21;19.80;57.34
72772;SHT30;60894;42.544;1.516;2023-07-13T07:12:48;19.98;57.38
72772;SHT30;60894;42.544;1.516;2023-07-13T07:15:16;19.90;57.68
72772;SHT30;60894;42.544;1.516;2023-07-13T07:17:43;20.03;57.71
72772;SHT30;60894;42.544;1.516;2023-07-13T07:20:12;20.10;56.71
72772;SHT30;60894;42.544;1.516;2023-07-13T07:22:39;20.11;57.10
72772;SHT30;60894;42.544;1.516;2023-07-13T07:25:06;20.30;57.13
72772;SHT30;60894;42.544;1.516;2023-07-13T07:27:33;20.30;56.91
72772;SHT30;60894;42.544;1.516;2023-07-13T07:30:00;20.55;56.61
72772;SHT30;60894;42.544;1.516;2023-07-13T07:32:28;20.65;55.87
72772;SHT30;60894;42.544;1.516;2023-07-13T07:34:55;20.92;55.13
72772;SHT30;60894;42.544;1.516;2023-07-13T07:37:24;21.00;53.68
72772;SHT30;60894;42.544;1.516;2023-07-13T07:39:51;21.06;54.90
72772;SHT30;60894;42.544;1.516;2023-07-13T07:42:18;21.03;54.63
72772;SHT30;60894;42.544;1.516;2023-07-13T07:44:45;21.26;55.38
72772;SHT30;60894;42.544;1.516;2023-07-13T07:47:12;21.40;53.99
72772;SHT30;60894;42.544;1.516;2023-07-13T07:49:39;21.46;54.96
72772;SHT30;60894;42.544;1.516;2023-07-13T07:52:07;21.29;54.28
72772;SHT30;60894;42.544;1.516;2023-07-13T07:54:35;21.47;55.20
72772;SHT30;60894;42.544;1.516;2023-07-13T07:57:02;21.60;55.51
72772;SHT30;60894;42.544;1.516;2023-07-13T07:59:29;21.51;55.44
72772;SHT30;60894;42.544;1.516;2023-07-13T08:01:56;21.46;54.00
72772;SHT30;60894;42.544;1.516;2023-07-13T08:04:23;21.60;54.98
72772;SHT30;60894;42.544;1.516;2023-07-13T08:06:50;21.65;53.71
72772;SHT30;60894;42.544;1.516;2023-07-13T08:09:17;21.57;53.24
72772;SHT30;60894;42.544;1.516;2023-07-13T08:11:45;21.60;52.28
72772;SHT30;60894;42.544;1.516;2023-07-13T08:14:12;21.67;52.33
72772;SHT30;60894;42.544;1.516;2023-07-13T08:16:39;21.92;52.89
72772;SHT30;60894;42.544;1.516;2023-07-13T08:19:06;22.21;52.69
72772;SHT30;60894;42.544;1.516;2023-07-13T08:21:33;22.26;50.23
72772;SHT30;60894;42.544;1.516;2023-07-13T08:24:00;22.35;48.34
72772;SHT30;60894;42.544;1.516;2023-07-13T08:26:27;22.48;48.71
72772;SHT30;60894;42.544;1.516;2023-07-13T08:28:56;22.53;47.57
72772;SHT30;60894;42.544;1.516;2023-07-13T08:31:23;22.64;47.71
72772;SHT30;60894;42.544;1.516;2023-07-13T08:33:49;22.59;46.17
72772;SHT30;60894;42.544;1.516;2023-07-13T08:36:16;22.67;44.72
72772;SHT30;60894;42.544;1.516;2023-07-13T08:38:43;22.76;44.13
72772;SHT30;60894;42.544;1.516;2023-07-13T08:41:13;22.86;44.31
72772;SHT30;60894;42.544;1.516;2023-07-13T08:43:42;22.89;43.35
72772;SHT30;60894;42.544;1.516;2023-07-13T08:46:15;23.01;44.17
72772;SHT30;60894;42.544;1.516;2023-07-13T08:48:46;23.13;43.98
72772;SHT30;60894;42.544;1.516;2023-07-13T08:51:24;23.11;44.05
72772;SHT30;60894;42.544;1.516;2023-07-13T08:53:57;23.18;44.27
72772;SHT30;60894;42.544;1.516;2023-07-13T08:56:28;23.23;44.25
72772;SHT30;60894;42.544;1.516;2023-07-13T08:58:57;23.31;43.82
72772;SHT30;60894;42.544;1.516;2023-07-13T09:01:30;23.28;44.24
72772;SHT30;60894;42.544;1.516;2023-07-13T09:04:05;23.41;44.52
72772;SHT30;60894;42.544;1.516;2023-07-13T09:06:40;23.45;44.35
72772;SHT30;60894;42.544;1.516;2023-07-13T09:09:18;23.55;43.21
72772;SHT30;60894;42.544;1.516;2023-07-13T09:11:52;23.57;43.05
72772;SHT30;60894;42.544;1.516;2023-07-13T09:14:42;23.82;43.22
72772;SHT30;60894;42.544;1.516;2023-07-13T09:17:15;23.89;42.73
72772;SHT30;60894;42.544;1.516;2023-07-13T09:19:46;24.05;41.94
72772;SHT30;60894;42.544;1.516;2023-07-13T09:22:19;24.17;42.07
72772;SHT30;60894;42.544;1.516;2023-07-13T09:24:55;24.16;42.17
72772;SHT30;60894;42.544;1.516;2023-07-13T09:27:29;24.09;42.38
72772;SHT30;60894;42.544;1.516;2023-07-13T09:30:02;24.22;42.34
72772;SHT30;60894;42.544;1.516;2023-07-13T09:32:36;24.10;41.66
72772;SHT30;60894;42.544;1.516;2023-07-13T09:35:10;24.20;42.46
72772;SHT30;60894;42.544;1.516;2023-07-13T09:37:38;24.19;42.33
72772;SHT30;60894;42.544;1.516;2023-07-13T09:40:11;24.17;42.73
72772;SHT30;60894;42.544;1.516;2023-07-13T09:42:40;24.17;41.34
72772;SHT30;60894;42.544;1.516;2023-07-13T09:45:08;24.36;41.13
72772;SHT30;60894;42.544;1.516;2023-07-13T09:47:40;24.41;40.99
72772;SHT30;60894;42.544;1.516;2023-07-13T09:50:10;24.50;40.53
72772;SHT30;60894;42.544;1.516;2023-07-13T09:52:44;24.59;40.70
72772;SHT30;60894;42.544;1.516;2023-07-13T09:55:27;24.77;40.72
72772;SHT30;60894;42.544;1.516;2023-07-13T09:57:55;24.74;40.66
72772;SHT30;60894;42.544;1.516;2023-07-13T10:00:24;25.02;40.52
72772;SHT30;60894;42.544;1.516;2023-07-13T10:03:01;25.19;40.11
72772;SHT30;60894;42.544;1.516;2023-07-13T10:05:38;25.32;40.17
72772;SHT30;60894;42.544;1.516;2023-07-13T10:08:05;25.39;39.65
72772;SHT30;60894;42.544;1.516;2023-07-13T10:10:33;25.59;39.21
72772;SHT30;60894;42.544;1.516;2023-07-13T10:13:01;25.73;38.68
72772;SHT30;60894;42.544;1.516;2023-07-13T10:15:30;25.76;39.28
72772;SHT30;60894;42.544;1.516;2023-07-13T10:17:57;25.93;38.82
72772;SHT30;60894;42.544;1.516;2023-07-13T10:20:26;25.93;37.58
72772;SHT30;60894;42.544;1.516;2023-07-13T10:22:56;25.90;38.19
72772;SHT30;60894;42.544;1.516;2023-07-13T10:25:27;25.94;38.21
72772;SHT30;60894;42.544;1.516;2023-07-13T10:28:00;26.18;38.34
72772;SHT30;60894;42.544;1.516;2023-07-13T10:30:31;26.04;38.21
72772;SHT30;60894;42.544;1.516;2023-07-13T10:33:01;25.80;38.07
72772;SHT30;60894;42.544;1.516;2023-07-13T10:35:31;26.21;37.75
72772;SHT30;60894;42.544;1.516;2023-07-13T10:38:01;26.56;37.51
72772;SHT30;60894;42.544;1.516;2023-07-13T10:40:35;26.18;38.08
72772;SHT30;60894;42.544;1.516;2023-07-13T10:43:06;26.10;38.02
72772;SHT30;60894;42.544;1.516;2023-07-13T10:45:36;26.08;38.05
72772;SHT30;60894;42.544;1.516;2023-07-13T10:48:05;26.25;38.13
72772;SHT30;60894;42.544;1.516;2023-07-13T10:50:35;26.35;38.19
72772;SHT30;60894;42.544;1.516;2023-07-13T10:53:18;26.45;37.93
72772;SHT30;60894;42.544;1.516;2023-07-13T10:55:56;26.48;37.64
72772;SHT30;60894;42.544;1.516;2023-07-13T10:58:29;26.48;37.80
72772;SHT30;60894;42.544;1.516;2023-07-13T11:01:10;26.58;38.45
72772;SHT30;60894;42.544;1.516;2023-07-13T11:03:49;26.69;37.59
72772;SHT30;60894;42.544;1.516;2023-07-13T11:06:32;26.78;37.20
72772;SHT30;60894;42.544;1.516;2023-07-13T11:09:18;26.89;37.77
72772;SHT30;60894;42.544;1.516;2023-07-13T11:11:45;26.95;36.71
72772;SHT30;60894;42.544;1.516;2023-07-13T11:14:35;27.12;37.64
72772;SHT30;60894;42.544;1.516;2023-07-13T11:17:32;27.09;36.88
72772;SHT30;60894;42.544;1.516;2023-07-13T11:20:18;27.10;37.35
72772;SHT30;60894;42.544;1.516;2023-07-13T11:22:49;27.00;36.69
72772;SHT30;60894;42.544;1.516;2023-07-13T11:25:28;26.95;36.63
72772;SHT30;60894;42.544;1.516;2023-07-13T11:28:17;26.98;36.27
72772;SHT30;60894;42.544;1.516;2023-07-13T11:30:47;27.43;36.30
72772;SHT30;60894;42.544;1.516;2023-07-13T11:33:17;27.37;35.33
72772;SHT30;60894;42.544;1.516;2023-07-13T11:35:51;27.50;35.10
72772;SHT30;60894;42.544;1.516;2023-07-13T11:38:22;27.34;35.47
72772;SHT30;60894;42.544;1.516;2023-07-13T11:40:53;27.50;34.45
72772;SHT30;60894;42.544;1.516;2023-07-13T11:43:20;27.61;33.37
72772;SHT30;60894;42.544;1.516;2023-07-13T11:45:49;27.95;34.03
72772;SHT30;60894;42.544;1.516;2023-07-13T11:48:22;27.98;32.68
72772;SHT30;60894;42.544;1.516;2023-07-13T11:50:51;28.16;31.94
72772;SHT30;60894;42.544;1.516;2023-07-13T11:53:21;28.26;32.13
72772;SHT30;60894;42.544;1.516;2023-07-13T11:55:49;28.29;31.93
72772;SHT30;60894;42.544;1.516;2023-07-13T11:58:21;27.90;32.94
72772;SHT30;60894;42.544;1.516;2023-07-13T12:00:50;28.16;32.57
72772;SHT30;60894;42.544;1.516;2023-07-13T12:03:19;28.24;32.65
72772;SHT30;60894;42.544;1.516;2023-07-13T12:05:59;28.22;32.72
72772;SHT30;60894;42.544;1.516;2023-07-13T12:08:28;27.95;31.30
72772;SHT30;60894;42.544;1.516;2023-07-13T12:11:05;28.09;32.12
72772;SHT30;60894;42.544;1.516;2023-07-13T12:13:37;28.21;32.43
72772;SHT30;60894;42.544;1.516;2023-07-13T12:16:12;28.32;32.54
72772;SHT30;60894;42.544;1.516;2023-07-13T12:18:42;28.28;32.31
72772;SHT30;60894;42.544;1.516;2023-07-13T12:21:13;28.38;32.67
72772;SHT30;60894;42.544;1.516;2023-07-13T12:23:43;28.57;32.43
72772;SHT30;60894;42.544;1.516;2023-07-13T12:26:11;28.09;33.07
72772;SHT30;60894;42.544;1.516;2023-07-13T12:28:43;28.26;32.59
72772;SHT30;60894;42.544;1.516;2023-07-13T12:31:24;28.39;32.17
72772;SHT30;60894;42.544;1.516;2023-07-13T12:33:56;28.44;32.33
72772;SHT30;60894;42.544;1.516;2023-07-13T12:36:24;28.46;31.98
72772;SHT30;60894;42.544;1.516;2023-07-13T12:38:52;28.72;32.90
72772;SHT30;60894;42.544;1.516;2023-07-13T12:41:19;28.69;32.48
72772;SHT30;60894;42.544;1.516;2023-07-13T12:43:48;28.89;32.44
72772;SHT30;60894;42.544;1.516;2023-07-13T12:46:18;28.38;32.20
72772;SHT30;60894;42.544;1.516;2023-07-13T12:48:50;28.35;32.61
72772;SHT30;60894;42.544;1.516;2023-07-13T12:51:20;29.02;32.53
72772;SHT30;60894;42.544;1.516;2023-07-13T12:53:49;28.66;32.02
72772;SHT30;60894;42.544;1.516;2023-07-13T12:56:23;28.86;32.21
72772;SHT30;60894;42.544;1.516;2023-07-13T12:58:56;28.60;32.82
72772;SHT30;60894;42.544;1.516;2023-07-13T13:01:26;28.65;32.19
72772;SHT30;60894;42.544;1.516;2023-07-13T13:03:54;29.17;31.66
72772;SHT30;60894;42.544;1.516;2023-07-13T13:06:24;29.53;31.43
72772;SHT30;60894;42.544;1.516;2023-07-13T13:08:53;29.31;31.65
72772;SHT30;60894;42.544;1.516;2023-07-13T13:11:23;29.20;31.87
72772;SHT30;60894;42.544;1.516;2023-07-13T13:13:51;29.07;32.30
72772;SHT30;60894;42.544;1.516;2023-07-13T13:16:21;29.20;32.06
72772;SHT30;60894;42.544;1.516;2023-07-13T13:18:49;29.25;32.09
72772;SHT30;60894;42.544;1.516;2023-07-13T13:21:17;29.16;32.22
72772;SHT30;60894;42.544;1.516;2023-07-13T13:23:45;29.06;31.89
72772;SHT30;60894;42.544;1.516;2023-07-13T13:26:14;28.97;32.29
72772;SHT30;60894;42.544;1.516;2023-07-13T13:28:43;29.02;31.72
72772;SHT30;60894;42.544;1.516;2023-07-13T13:31:10;29.30;32.40
72772;SHT30;60894;42.544;1.516;2023-07-13T13:33:38;28.94;32.55
72772;SHT30;60894;42.544;1.516;2023-07-13T13:36:13;28.90;32.74
72772;SHT30;60894;42.544;1.516;2023-07-13T13:38:41;29.38;32.08
72772;SHT30;60894;42.544;1.516;2023-07-13T13:41:10;29.48;31.34
72772;SHT30;60894;42.544;1.516;2023-07-13T13:43:39;29.76;31.15
72772;SHT30;60894;42.544;1.516;2023-07-13T13:46:14;30.23;30.41
72772;SHT30;60894;42.544;1.516;2023-07-13T13:48:42;30.08;30.69
72772;SHT30;60894;42.544;1.516;2023-07-13T13:51:15;29.86;31.27
72772;SHT30;60894;42.544;1.516;2023-07-13T13:53:43;29.58;31.10
72772;SHT30;60894;42.544;1.516;2023-07-13T13:56:11;29.51;31.72
72772;SHT30;60894;42.544;1.516;2023-07-13T13:58:38;28.94;32.44
72772;SHT30;60894;42.544;1.516;2023-07-13T14:01:08;29.47;32.00
72772;SHT30;60894;42.544;1.516;2023-07-13T14:03:39;29.11;32.55
72772;SHT30;60894;42.544;1.516;2023-07-13T14:06:08;28.75;33.53
72772;SHT30;60894;42.544;1.516;2023-07-13T14:08:36;29.04;33.20
72772;SHT30;60894;42.544;1.516;2023-07-13T14:11:03;29.04;32.75
72772;SHT30;60894;42.544;1.516;2023-07-13T14:13:34;29.39;32.46
72772;SHT30;60894;42.544;1.516;2023-07-13T14:16:04;29.25;32.45
72772;SHT30;60894;42.544;1.516;2023-07-13T14:18:33;29.71;32.53
72772;SHT30;60894;42.544;1.516;2023-07-13T14:21:01;29.25;32.62
72772;SHT30;60894;42.544;1.516;2023-07-13T14:23:28;29.04;33.27
72772;SHT30;60894;42.544;1.516;2023-07-13T14:25:55;29.27;32.50
72772;SHT30;60894;42.544;1.516;2023-07-13T14:28:25;29.00;32.86
72772;SHT30;60894;42.544;1.516;2023-07-13T14:30:54;28.65;33.28
72772;SHT30;60894;42.544;1.516;2023-07-13T14:33:21;28.22;34.46
72772;SHT30;60894;42.544;1.516;2023-07-13T14:35:49;28.05;34.81
72772;SHT30;60894;42.544;1.516;2023-07-13T14:38:19;28.32;34.84
72772;SHT30;60894;42.544;1.516;2023-07-13T14:40:46;28.24;35.06
72772;SHT30;60894;42.544;1.516;2023-07-13T14:43:15;27.54;35.76
72772;SHT30;60894;42.544;1.516;2023-07-13T14:45:46;27.23;36.63
72772;SHT30;60894;42.544;1.516;2023-07-13T14:48:17;27.76;36.01
72772;SHT30;60894;42.544;1.516;2023-07-13T14:50:45;28.01;35.41
72772;SHT30;60894;42.544;1.516;2023-07-13T14:53:13;28.06;35.64
72772;SHT30;60894;42.544;1.516;2023-07-13T14:55:42;28.39;35.20
72772;SHT30;60894;42.544;1.516;2023-07-13T14:58:09;28.11;35.53
72772;SHT30;60894;42.544;1.516;2023-07-13T15:00:36;27.61;36.15
72772;SHT30;60894;42.544;1.516;2023-07-13T15:03:04;27.81;36.23
72772;SHT30;60894;42.544;1.516;2023-07-13T15:05:32;28.05;35.61
72772;SHT30;60894;42.544;1.516;2023-07-13T15:08:00;28.36;35.64
72772;SHT30;60894;42.544;1.516;2023-07-13T15:10:29;28.77;34.76
72772;SHT30;60894;42.544;1.516;2023-07-13T15:13:00;27.94;36.05
72772;SHT30;60894;42.544;1.516;2023-07-13T15:15:30;27.50;36.74
72772;SHT30;60894;42.544;1.516;2023-07-13T15:17:59;27.47;36.71
72772;SHT30;60894;42.544;1.516;2023-07-13T15:20:29;26.96;37.51
72772;SHT30;60894;42.544;1.516;2023-07-13T15:22:57;26.85;37.68
72772;SHT30;60894;42.544;1.516;2023-07-13T15:25:26;26.65;38.12
72772;SHT30;60894;42.544;1.516;2023-07-13T15:27:54;27.03;37.94
72772;SHT30;60894;42.544;1.516;2023-07-13T15:30:25;27.37;36.97
72772;SHT30;60894;42.544;1.516;2023-07-13T15:32:55;27.46;36.74
72772;SHT30;60894;42.544;1.516;2023-07-13T15:35:25;27.50;36.98
72772;SHT30;60894;42.544;1.516;2023-07-13T15:37:53;27.56;37.32
72772;SHT30;60894;42.544;1.516;2023-07-13T15:40:20;27.44;37.31
72772;SHT30;60894;42.544;1.516;2023-07-13T15:42:49;27.36;37.46